sensor_id;sensor_type;location;lat;lon;timestamp;pressure;altitude;pressure_sealevel;temperature;humidity
19594;BME280;9944;48.240;16.478;2022-11-25T00:02:47;99871.97;;;6.25;85.00
19594;BME280;9944;48.240;16.478;2022-11-25T00:06:51;99876.34;;;6.25;85.04
19594;BME280;9944;48.240;16.478;2022-11-25T00:10:54;99877.16;;;6.22;85.11
19594;BME280;9944;48.240;16.478;2022-11-25T00:14:57;99877.16;;;6.22;85.13
19594;BME280;9944;48.240;16.478;2022-11-25T00:19:01;99875.38;;;6.20;85.08
19594;BME280;9944;48.240;16.478;2022-11-25T00:23:04;99875.38;;;6.18;85.35
19594;BME280;9944;48.240;16.478;2022-11-25T00:27:08;99871.78;;;6.13;84.88
19594;BME280;9944;48.240;16.478;2022-11-25T00:31:13;99878.69;;;6.08;84.88
19594;BME280;9944;48.240;16.478;2022-11-25T00:35:20;99880.47;;;6.09;85.23
19594;BME280;9944;48.240;16.478;2022-11-25T00:39:23;99881.31;;;6.08;85.25
19594;BME280;9944;48.240;16.478;2022-11-25T00:43:27;99877.84;;;6.09;85.52
19594;BME280;9944;48.240;16.478;2022-11-25T00:47:47;99880.47;;;6.09;85.52
19594;BME280;9944;48.240;16.478;2022-11-25T00:51:53;99887.44;;;6.08;85.69
19594;BME280;9944;48.240;16.478;2022-11-25T00:56:00;99892.66;;;6.07;85.68
19594;BME280;9944;48.240;16.478;2022-11-25T01:00:15;99892.63;;;6.04;85.54
19594;BME280;9944;48.240;16.478;2022-11-25T01:04:18;99891.69;;;6.00;85.76
19594;BME280;9944;48.240;16.478;2022-11-25T01:08:23;99896.84;;;5.96;85.57
19594;BME280;9944;48.240;16.478;2022-11-25T01:12:26;99897.69;;;5.95;85.71
19594;BME280;9944;48.240;16.478;2022-11-25T01:16:29;99897.69;;;5.95;85.97
19594;BME280;9944;48.240;16.478;2022-11-25T01:20:33;99897.78;;;5.99;86.52
19594;BME280;9944;48.240;16.478;2022-11-25T01:24:37;99905.72;;;6.04;86.37
19594;BME280;9944;48.240;16.478;2022-11-25T01:28:40;99911.88;;;6.06;86.66
19594;BME280;9944;48.240;16.478;2022-11-25T01:32:45;99908.41;;;6.10;86.61
19594;BME280;9944;48.240;16.478;2022-11-25T01:36:48;99904.97;;;6.14;86.67
19594;BME280;9944;48.240;16.478;2022-11-25T01:40:53;99906.81;;;6.18;86.61
19594;BME280;9944;48.240;16.478;2022-11-25T01:45:33;99898.94;;;6.17;86.68
19594;BME280;9944;48.240;16.478;2022-11-25T01:49:40;99898.88;;;6.14;86.39
19594;BME280;9944;48.240;16.478;2022-11-25T01:53:44;99893.56;;;6.09;86.02
19594;BME280;9944;48.240;16.478;2022-11-25T01:57:52;99890.91;;;6.06;85.97
19594;BME280;9944;48.240;16.478;2022-11-25T02:01:58;99906.56;;;6.03;85.88
19594;BME280;9944;48.240;16.478;2022-11-25T02:06:06;99901.25;;;6.00;85.82
19594;BME280;9944;48.240;16.478;2022-11-25T02:10:14;99909.91;;;5.94;85.57
19594;BME280;9944;48.240;16.478;2022-11-25T02:14:21;99904.56;;;5.86;85.09
19594;BME280;9944;48.240;16.478;2022-11-25T02:18:26;99908.78;;;5.78;84.59
19594;BME280;9944;48.240;16.478;2022-11-25T02:22:38;99916.50;;;5.72;84.67
19594;BME280;9944;48.240;16.478;2022-11-25T02:26:45;99911.97;;;5.62;83.88
19594;BME280;9944;48.240;16.478;2022-11-25T02:30:48;99908.34;;;5.55;83.54
19594;BME280;9944;48.240;16.478;2022-11-25T02:34:52;99916.13;;;5.50;83.85
19594;BME280;9944;48.240;16.478;2022-11-25T02:38:58;99916.88;;;5.43;83.50
19594;BME280;9944;48.240;16.478;2022-11-25T02:43:07;99915.00;;;5.36;83.22
19594;BME280;9944;48.240;16.478;2022-11-25T02:47:10;99920.91;;;5.26;83.34
19594;BME280;9944;48.240;16.478;2022-11-25T02:51:16;99915.47;;;5.16;83.28
19594;BME280;9944;48.240;16.478;2022-11-25T02:55:19;99914.50;;;5.11;83.35
19594;BME280;9944;48.240;16.478;2022-11-25T02:59:23;99910.06;;;5.07;83.68
19594;BME280;9944;48.240;16.478;2022-11-25T03:03:26;99917.72;;;4.98;83.28
19594;BME280;9944;48.240;16.478;2022-11-25T03:07:30;99921.81;;;4.85;83.00
19594;BME280;9944;48.240;16.478;2022-11-25T03:11:33;99926.81;;;4.74;83.08
19594;BME280;9944;48.240;16.478;2022-11-25T03:15:56;99921.47;;;4.70;83.14
19594;BME280;9944;48.240;16.478;2022-11-25T03:20:03;99938.81;;;4.66;83.29
19594;BME280;9944;48.240;16.478;2022-11-25T03:24:06;99944.84;;;4.62;83.30
19594;BME280;9944;48.240;16.478;2022-11-25T03:28:09;99943.94;;;4.60;83.44
19594;BME280;9944;48.240;16.478;2022-11-25T03:32:14;99941.31;;;4.60;83.81
19594;BME280;9944;48.240;16.478;2022-11-25T03:36:17;99949.22;;;4.63;84.17
19594;BME280;9944;48.240;16.478;2022-11-25T03:40:21;99949.22;;;4.63;83.85
19594;BME280;9944;48.240;16.478;2022-11-25T03:44:25;99953.56;;;4.63;84.17
19594;BME280;9944;48.240;16.478;2022-11-25T03:48:29;99950.91;;;4.61;84.22
19594;BME280;9944;48.240;16.478;2022-11-25T03:52:32;99950.88;;;4.59;83.99
19594;BME280;9944;48.240;16.478;2022-11-25T03:56:36;99967.31;;;4.54;83.54
19594;BME280;9944;48.240;16.478;2022-11-25T04:00:39;99959.34;;;4.48;83.37
19594;BME280;9944;48.240;16.478;2022-11-25T04:04:44;99963.63;;;4.46;83.22
19594;BME280;9944;48.240;16.478;2022-11-25T04:08:48;99975.81;;;4.45;83.39
19594;BME280;9944;48.240;16.478;2022-11-25T04:12:52;99982.81;;;4.46;83.06
19594;BME280;9944;48.240;16.478;2022-11-25T04:17:00;99987.13;;;4.46;83.21
19594;BME280;9944;48.240;16.478;2022-11-25T04:21:05;99984.47;;;4.43;82.97
19594;BME280;9944;48.240;16.478;2022-11-25T04:25:09;99984.34;;;4.38;83.00
19594;BME280;9944;48.240;16.478;2022-11-25T04:29:13;99990.41;;;4.35;82.57
19594;BME280;9944;48.240;16.478;2022-11-25T04:33:17;99995.59;;;4.34;82.72
19594;BME280;9944;48.240;16.478;2022-11-25T04:37:23;99986.84;;;4.33;82.97
19594;BME280;9944;48.240;16.478;2022-11-25T04:41:27;100002.53;;;4.33;82.94
19594;BME280;9944;48.240;16.478;2022-11-25T04:45:31;99989.50;;;4.35;83.01
19594;BME280;9944;48.240;16.478;2022-11-25T04:49:54;99990.41;;;4.37;83.14
19594;BME280;9944;48.240;16.478;2022-11-25T04:54:00;99995.63;;;4.35;83.06
19594;BME280;9944;48.240;16.478;2022-11-25T04:58:04;100007.78;;;4.35;83.06
19594;BME280;9944;48.240;16.478;2022-11-25T05:02:12;100012.97;;;4.33;83.40
19594;BME280;9944;48.240;16.478;2022-11-25T05:06:20;100021.63;;;4.31;83.17
19594;BME280;9944;48.240;16.478;2022-11-25T05:10:25;100012.84;;;4.27;83.23
19594;BME280;9944;48.240;16.478;2022-11-25T05:14:29;100013.63;;;4.25;83.18
19594;BME280;9944;48.240;16.478;2022-11-25T05:18:32;100016.19;;;4.23;83.15
19594;BME280;9944;48.240;16.478;2022-11-25T05:22:35;100024.00;;;4.20;83.19
19594;BME280;9944;48.240;16.478;2022-11-25T05:26:41;100031.75;;;4.17;82.69
19594;BME280;9944;48.240;16.478;2022-11-25T05:30:45;100023.81;;;4.14;82.99
19594;BME280;9944;48.240;16.478;2022-11-25T05:34:49;100024.63;;;4.11;82.80
19594;BME280;9944;48.240;16.478;2022-11-25T05:38:52;100022.81;;;4.09;83.07
19594;BME280;9944;48.240;16.478;2022-11-25T05:43:05;100026.19;;;4.05;82.85
19594;BME280;9944;48.240;16.478;2022-11-25T05:47:11;100017.44;;;4.02;83.05
19594;BME280;9944;48.240;16.478;2022-11-25T05:51:15;100018.28;;;4.01;83.18
19594;BME280;9944;48.240;16.478;2022-11-25T05:55:19;100032.16;;;3.99;83.02
19594;BME280;9944;48.240;16.478;2022-11-25T05:59:24;100023.41;;;3.98;83.29
19594;BME280;9944;48.240;16.478;2022-11-25T06:03:50;100026.03;;;3.98;83.43
19594;BME280;9944;48.240;16.478;2022-11-25T06:07:54;100022.59;;;3.99;83.48
19594;BME280;9944;48.240;16.478;2022-11-25T06:11:57;100028.59;;;3.97;83.36
19594;BME280;9944;48.240;16.478;2022-11-25T06:16:07;100026.94;;;3.99;83.49
19594;BME280;9944;48.240;16.478;2022-11-25T06:20:10;100032.94;;;3.96;83.66
19594;BME280;9944;48.240;16.478;2022-11-25T06:24:14;100025.84;;;3.92;83.42
19594;BME280;9944;48.240;16.478;2022-11-25T06:28:19;100037.88;;;3.87;83.55
19594;BME280;9944;48.240;16.478;2022-11-25T06:32:25;100034.41;;;3.88;83.57
19594;BME280;9944;48.240;16.478;2022-11-25T06:36:39;100036.94;;;3.83;83.49
19594;BME280;9944;48.240;16.478;2022-11-25T06:40:43;100031.56;;;3.79;83.63
19594;BME280;9944;48.240;16.478;2022-11-25T06:44:46;100043.75;;;3.78;83.87
19594;BME280;9944;48.240;16.478;2022-11-25T06:48:50;100043.75;;;3.78;84.00
19594;BME280;9944;48.240;16.478;2022-11-25T06:52:53;100047.09;;;3.74;83.70
19594;BME280;9944;48.240;16.478;2022-11-25T06:56:56;100045.22;;;3.69;83.64
19594;BME280;9944;48.240;16.478;2022-11-25T07:01:00;100043.47;;;3.69;84.30
19594;BME280;9944;48.240;16.478;2022-11-25T07:05:06;100039.16;;;3.70;84.38
19594;BME280;9944;48.240;16.478;2022-11-25T07:09:09;100053.13;;;3.72;84.44
19594;BME280;9944;48.240;16.478;2022-11-25T07:13:12;100053.22;;;3.75;84.50
19594;BME280;9944;48.240;16.478;2022-11-25T07:17:15;100056.66;;;3.74;84.42
19594;BME280;9944;48.240;16.478;2022-11-25T07:21:21;100053.22;;;3.75;84.54
19594;BME280;9944;48.240;16.478;2022-11-25T07:25:24;100059.28;;;3.74;84.44
19594;BME280;9944;48.240;16.478;2022-11-25T07:29:31;100069.72;;;3.74;84.41
19594;BME280;9944;48.240;16.478;2022-11-25T07:33:58;100061.88;;;3.74;84.35
19594;BME280;9944;48.240;16.478;2022-11-25T07:38:03;100078.38;;;3.73;84.46
19594;BME280;9944;48.240;16.478;2022-11-25T07:42:06;100074.88;;;3.72;84.22
19594;BME280;9944;48.240;16.478;2022-11-25T07:46:10;100077.44;;;3.71;84.12
19594;BME280;9944;48.240;16.478;2022-11-25T07:50:14;100085.34;;;3.72;84.33
19594;BME280;9944;48.240;16.478;2022-11-25T07:54:20;100081.09;;;3.76;84.63
19594;BME280;9944;48.240;16.478;2022-11-25T07:58:23;100077.66;;;3.77;84.75
19594;BME280;9944;48.240;16.478;2022-11-25T08:02:26;100090.78;;;3.80;84.87
19594;BME280;9944;48.240;16.478;2022-11-25T08:06:29;100092.69;;;3.85;85.05
19594;BME280;9944;48.240;16.478;2022-11-25T08:10:34;100099.03;;;3.95;85.50
19594;BME280;9944;48.240;16.478;2022-11-25T08:14:37;100105.44;;;4.05;85.49
19594;BME280;9944;48.240;16.478;2022-11-25T08:18:40;100106.50;;;4.12;85.86
19594;BME280;9944;48.240;16.478;2022-11-25T08:22:43;100103.94;;;4.13;85.40
19594;BME280;9944;48.240;16.478;2022-11-25T08:26:48;100113.50;;;4.13;85.00
19594;BME280;9944;48.240;16.478;2022-11-25T08:30:52;100111.72;;;4.12;85.19
19594;BME280;9944;48.240;16.478;2022-11-25T08:34:55;100101.34;;;4.15;85.29
19594;BME280;9944;48.240;16.478;2022-11-25T08:38:59;100115.50;;;4.23;85.60
19594;BME280;9944;48.240;16.478;2022-11-25T08:43:06;100116.59;;;4.31;85.70
19594;BME280;9944;48.240;16.478;2022-11-25T08:47:09;100116.81;;;4.39;85.86
19594;BME280;9944;48.240;16.478;2022-11-25T08:51:14;100117.88;;;4.47;85.92
19594;BME280;9944;48.240;16.478;2022-11-25T08:55:18;100128.63;;;4.58;86.07
19594;BME280;9944;48.240;16.478;2022-11-25T08:59:23;100128.94;;;4.70;86.11
19594;BME280;9944;48.240;16.478;2022-11-25T09:03:27;100126.47;;;4.76;86.05
19594;BME280;9944;48.240;16.478;2022-11-25T09:07:33;100125.78;;;4.84;86.34
19594;BME280;9944;48.240;16.478;2022-11-25T09:11:36;100130.28;;;4.89;86.28
19594;BME280;9944;48.240;16.478;2022-11-25T09:15:41;100131.34;;;4.97;86.33
19594;BME280;9944;48.240;16.478;2022-11-25T09:19:44;100119.25;;;5.03;85.98
19594;BME280;9944;48.240;16.478;2022-11-25T09:23:48;100129.75;;;5.04;85.90
19594;BME280;9944;48.240;16.478;2022-11-25T09:27:52;100133.28;;;5.06;85.76
19594;BME280;9944;48.240;16.478;2022-11-25T09:31:56;100125.69;;;5.15;85.86
19594;BME280;9944;48.240;16.478;2022-11-25T09:36:00;100126.72;;;5.24;86.04
19594;BME280;9944;48.240;16.478;2022-11-25T09:40:06;100131.28;;;5.31;85.75
19594;BME280;9944;48.240;16.478;2022-11-25T09:44:19;100126.25;;;5.40;85.80
19594;BME280;9944;48.240;16.478;2022-11-25T09:48:55;100123.69;;;5.43;85.58
19594;BME280;9944;48.240;16.478;2022-11-25T09:53:04;100116.81;;;5.48;85.50
19594;BME280;9944;48.240;16.478;2022-11-25T09:57:20;100122.34;;;5.61;85.91
19594;BME280;9944;48.240;16.478;2022-11-25T10:01:26;100120.69;;;5.66;85.48
19594;BME280;9944;48.240;16.478;2022-11-25T10:05:36;100127.03;;;5.77;85.83
19594;BME280;9944;48.240;16.478;2022-11-25T10:09:40;100118.41;;;5.83;85.82
19594;BME280;9944;48.240;16.478;2022-11-25T10:13:48;100112.47;;;5.91;85.71
19594;BME280;9944;48.240;16.478;2022-11-25T10:17:57;100109.03;;;5.94;85.43
19594;BME280;9944;48.240;16.478;2022-11-25T10:22:13;100105.66;;;6.00;85.59
19594;BME280;9944;48.240;16.478;2022-11-25T10:26:22;100107.59;;;6.10;85.46
19594;BME280;9944;48.240;16.478;2022-11-25T10:30:33;100105.97;;;6.15;84.95
19594;BME280;9944;48.240;16.478;2022-11-25T10:34:41;100106.97;;;6.22;84.89
19594;BME280;9944;48.240;16.478;2022-11-25T10:38:55;100108.84;;;6.29;85.06
19594;BME280;9944;48.240;16.478;2022-11-25T10:43:00;100107.25;;;6.37;84.68
19594;BME280;9944;48.240;16.478;2022-11-25T10:47:14;100104.69;;;6.42;84.18
19594;BME280;9944;48.240;16.478;2022-11-25T10:51:32;100103.91;;;6.44;83.95
19594;BME280;9944;48.240;16.478;2022-11-25T10:55:56;100108.31;;;6.47;83.99
19594;BME280;9944;48.240;16.478;2022-11-25T11:00:00;100102.34;;;6.54;83.38
19594;BME280;9944;48.240;16.478;2022-11-25T11:04:10;100091.81;;;6.53;83.50
19594;BME280;9944;48.240;16.478;2022-11-25T11:08:19;100094.59;;;6.62;83.28
19594;BME280;9944;48.240;16.478;2022-11-25T11:12:25;100089.38;;;6.63;82.92
19594;BME280;9944;48.240;16.478;2022-11-25T11:16:31;100088.56;;;6.67;82.82
19594;BME280;9944;48.240;16.478;2022-11-25T11:20:35;100080.84;;;6.75;83.00
19594;BME280;9944;48.240;16.478;2022-11-25T11:24:39;100072.19;;;6.81;82.75
19594;BME280;9944;48.240;16.478;2022-11-25T11:28:44;100075.81;;;6.89;82.24
19594;BME280;9944;48.240;16.478;2022-11-25T11:32:55;100074.09;;;6.91;82.03
19594;BME280;9944;48.240;16.478;2022-11-25T11:37:14;100056.66;;;6.96;81.47
19594;BME280;9944;48.240;16.478;2022-11-25T11:41:28;100052.38;;;7.01;81.54
19594;BME280;9944;48.240;16.478;2022-11-25T11:45:43;100055.13;;;7.11;80.90
19594;BME280;9944;48.240;16.478;2022-11-25T11:50:01;100068.31;;;7.15;80.26
19594;BME280;9944;48.240;16.478;2022-11-25T11:54:08;100060.50;;;7.20;79.72
19594;BME280;9944;48.240;16.478;2022-11-25T11:58:22;100067.56;;;7.24;79.21
19594;BME280;9944;48.240;16.478;2022-11-25T12:02:35;100060.59;;;7.26;78.94
19594;BME280;9944;48.240;16.478;2022-11-25T12:06:45;100064.19;;;7.33;78.15
19594;BME280;9944;48.240;16.478;2022-11-25T12:10:57;100059.00;;;7.36;77.89
19594;BME280;9944;48.240;16.478;2022-11-25T12:15:04;100041.50;;;7.38;77.86
19594;BME280;9944;48.240;16.478;2022-11-25T12:19:18;100048.53;;;7.40;77.30
19594;BME280;9944;48.240;16.478;2022-11-25T12:23:27;100057.34;;;7.46;77.47
19594;BME280;9944;48.240;16.478;2022-11-25T12:27:36;100049.50;;;7.47;76.93
19594;BME280;9944;48.240;16.478;2022-11-25T12:31:44;100051.28;;;7.48;76.94
19594;BME280;9944;48.240;16.478;2022-11-25T12:35:57;100053.91;;;7.50;76.31
19594;BME280;9944;48.240;16.478;2022-11-25T12:40:08;100050.44;;;7.52;76.31
19594;BME280;9944;48.240;16.478;2022-11-25T12:44:17;100045.25;;;7.57;76.48
19594;BME280;9944;48.240;16.478;2022-11-25T12:48:22;100031.22;;;7.58;75.47
19594;BME280;9944;48.240;16.478;2022-11-25T12:52:38;100043.56;;;7.65;75.85
19594;BME280;9944;48.240;16.478;2022-11-25T12:56:56;100053.31;;;7.71;
19594;BME280;9944;48.240;16.478;2022-11-25T13:01:32;100052.44;;;7.73;75.69
19594;BME280;9944;48.240;16.478;2022-11-25T13:05:53;100050.72;;;7.75;75.79
19594;BME280;9944;48.240;16.478;2022-11-25T13:10:34;100057.75;;;7.76;76.04
19594;BME280;9944;48.240;16.478;2022-11-25T13:14:58;100061.25;;;7.78;76.18
19594;BME280;9944;48.240;16.478;2022-11-25T13:19:07;100049.00;;;7.77;75.75
19594;BME280;9944;48.240;16.478;2022-11-25T13:23:26;100051.63;;;7.76;76.06
19594;BME280;9944;48.240;16.478;2022-11-25T13:27:32;100056.84;;;7.74;76.11
19594;BME280;9944;48.240;16.478;2022-11-25T13:31:56;100057.69;;;7.73;75.78
19594;BME280;9944;48.240;16.478;2022-11-25T13:36:14;100059.44;;;7.73;75.69
19594;BME280;9944;48.240;16.478;2022-11-25T13:40:18;100064.69;;;7.71;75.63
19594;BME280;9944;48.240;16.478;2022-11-25T13:44:25;100063.81;;;7.71;75.79
19594;BME280;9944;48.240;16.478;2022-11-25T13:48:32;100057.66;;;7.70;75.93
19594;BME280;9944;48.240;16.478;2022-11-25T13:52:41;100064.69;;;7.71;76.10
19594;BME280;9944;48.240;16.478;2022-11-25T13:56:58;100062.03;;;7.70;76.12
19594;BME280;9944;48.240;16.478;2022-11-25T14:01:20;100062.91;;;7.67;76.31
19594;BME280;9944;48.240;16.478;2022-11-25T14:05:57;100066.41;;;7.68;76.13
19594;BME280;9944;48.240;16.478;2022-11-25T14:10:14;100066.38;;;7.66;76.41
19594;BME280;9944;48.240;16.478;2022-11-25T14:14:33;100068.16;;;7.67;76.73
19594;BME280;9944;48.240;16.478;2022-11-25T14:19:05;100062.84;;;7.64;76.61
19594;BME280;9944;48.240;16.478;2022-11-25T14:23:51;100065.47;;;7.63;76.65
19594;BME280;9944;48.240;16.478;2022-11-25T14:28:04;100070.66;;;7.59;76.64
19594;BME280;9944;48.240;16.478;2022-11-25T14:32:14;100072.41;;;7.57;76.83
19594;BME280;9944;48.240;16.478;2022-11-25T14:36:24;100074.09;;;7.54;76.98
19594;BME280;9944;48.240;16.478;2022-11-25T14:40:35;100081.09;;;7.52;76.97
19594;BME280;9944;48.240;16.478;2022-11-25T14:44:45;100084.56;;;7.51;77.20
19594;BME280;9944;48.240;16.478;2022-11-25T14:48:52;100095.91;;;7.47;77.07
19594;BME280;9944;48.240;16.478;2022-11-25T14:52:57;100092.38;;;7.45;77.49
19594;BME280;9944;48.240;16.478;2022-11-25T14:57:00;100094.94;;;7.41;77.43
19594;BME280;9944;48.240;16.478;2022-11-25T15:01:07;100095.78;;;7.37;77.53
19594;BME280;9944;48.240;16.478;2022-11-25T15:05:18;100099.16;;;7.30;77.13
19594;BME280;9944;48.240;16.478;2022-11-25T15:09:25;100104.34;;;7.24;77.56
19594;BME280;9944;48.240;16.478;2022-11-25T15:13:31;100109.53;;;7.21;77.67
19594;BME280;9944;48.240;16.478;2022-11-25T15:17:36;100109.44;;;7.15;77.52
19594;BME280;9944;48.240;16.478;2022-11-25T15:21:40;100109.34;;;7.09;77.76
19594;BME280;9944;48.240;16.478;2022-11-25T15:26:15;100109.25;;;7.02;77.53
19594;BME280;9944;48.240;16.478;2022-11-25T15:30:20;100112.69;;;6.98;77.69
19594;BME280;9944;48.240;16.478;2022-11-25T15:34:23;100108.22;;;6.93;77.66
19594;BME280;9944;48.240;16.478;2022-11-25T15:38:38;100111.66;;;6.87;77.79
19594;BME280;9944;48.240;16.478;2022-11-25T15:42:46;100110.63;;;6.79;77.82
19594;BME280;9944;48.240;16.478;2022-11-25T15:46:52;100108.75;;;6.72;77.87
19594;BME280;9944;48.240;16.478;2022-11-25T15:51:00;100108.59;;;6.62;78.36
19594;BME280;9944;48.240;16.478;2022-11-25T15:55:06;100111.91;;;6.52;78.53
19594;BME280;9944;48.240;16.478;2022-11-25T15:59:40;100106.44;;;6.41;78.96
19594;BME280;9944;48.240;16.478;2022-11-25T16:03:46;100113.31;;;6.35;79.00
19594;BME280;9944;48.240;16.478;2022-11-25T16:08:21;100105.25;;;6.24;79.23
19594;BME280;9944;48.240;16.478;2022-11-25T16:12:25;100102.53;;;6.18;79.40
19594;BME280;9944;48.240;16.478;2022-11-25T16:16:30;100113.75;;;6.12;79.54
19594;BME280;9944;48.240;16.478;2022-11-25T16:20:33;100122.47;;;6.09;79.86
19594;BME280;9944;48.240;16.478;2022-11-25T16:24:45;100121.50;;;6.06;79.55
19594;BME280;9944;48.240;16.478;2022-11-25T16:28:51;100121.38;;;6.00;79.49
19594;BME280;9944;48.240;16.478;2022-11-25T16:32:56;100137.00;;;5.94;79.18
19594;BME280;9944;48.240;16.478;2022-11-25T16:37:00;100134.25;;;5.89;79.39
19594;BME280;9944;48.240;16.478;2022-11-25T16:41:07;100137.72;;;5.86;79.42
19594;BME280;9944;48.240;16.478;2022-11-25T16:45:17;100138.50;;;5.82;79.46
19594;BME280;9944;48.240;16.478;2022-11-25T16:49:22;100135.78;;;5.79;79.62
19594;BME280;9944;48.240;16.478;2022-11-25T16:53:26;100138.38;;;5.76;79.70
19594;BME280;9944;48.240;16.478;2022-11-25T16:57:29;100140.00;;;5.71;79.47
19594;BME280;9944;48.240;16.478;2022-11-25T17:01:33;100137.28;;;5.66;79.97
19594;BME280;9944;48.240;16.478;2022-11-25T17:05:37;100141.66;;;5.66;80.17
19594;BME280;9944;48.240;16.478;2022-11-25T17:09:41;100144.31;;;5.69;80.11
19594;BME280;9944;48.240;16.478;2022-11-25T17:13:46;100160.09;;;5.72;80.42
19594;BME280;9944;48.240;16.478;2022-11-25T17:17:51;100175.81;;;5.72;80.68
19594;BME280;9944;48.240;16.478;2022-11-25T17:21:55;100172.31;;;5.71;80.73
19594;BME280;9944;48.240;16.478;2022-11-25T17:25:58;100165.31;;;5.70;80.59
19594;BME280;9944;48.240;16.478;2022-11-25T17:30:03;100174.97;;;5.73;80.81
19594;BME280;9944;48.240;16.478;2022-11-25T17:34:11;100175.25;;;5.85;82.15
19594;BME280;9944;48.240;16.478;2022-11-25T17:38:18;100181.06;;;6.13;83.14
19594;BME280;9944;48.240;16.478;2022-11-25T17:42:25;100182.88;;;6.17;81.98
19594;BME280;9944;48.240;16.478;2022-11-25T17:46:29;100189.66;;;6.06;81.38
19594;BME280;9944;48.240;16.478;2022-11-25T17:50:32;100192.13;;;6.00;81.38
19594;BME280;9944;48.240;16.478;2022-11-25T17:54:38;100198.16;;;5.96;81.32
19594;BME280;9944;48.240;16.478;2022-11-25T17:58:41;100203.38;;;5.94;81.23
19594;BME280;9944;48.240;16.478;2022-11-25T18:02:44;100203.34;;;5.92;81.16
19594;BME280;9944;48.240;16.478;2022-11-25T18:06:47;100211.16;;;5.91;81.02
19594;BME280;9944;48.240;16.478;2022-11-25T18:10:52;100203.22;;;5.86;80.94
19594;BME280;9944;48.240;16.478;2022-11-25T18:14:55;100214.50;;;5.84;81.03
19594;BME280;9944;48.240;16.478;2022-11-25T18:18:58;100215.34;;;5.81;81.19
19594;BME280;9944;48.240;16.478;2022-11-25T18:23:01;100228.34;;;5.78;81.22
19594;BME280;9944;48.240;16.478;2022-11-25T18:27:09;100231.78;;;5.76;81.62
19594;BME280;9944;48.240;16.478;2022-11-25T18:31:16;100222.94;;;5.70;81.82
19594;BME280;9944;48.240;16.478;2022-11-25T18:35:21;100228.13;;;5.67;81.72
19594;BME280;9944;48.240;16.478;2022-11-25T18:39:25;100234.16;;;5.65;82.17
19594;BME280;9944;48.240;16.478;2022-11-25T18:43:30;100242.03;;;5.66;82.45
19594;BME280;9944;48.240;16.478;2022-11-25T18:47:35;100235.03;;;5.65;82.75
19594;BME280;9944;48.240;16.478;2022-11-25T18:51:38;100249.94;;;5.68;82.92
19594;BME280;9944;48.240;16.478;2022-11-25T18:55:42;100250.72;;;5.64;82.74
19594;BME280;9944;48.240;16.478;2022-11-25T18:59:47;100249.78;;;5.62;83.06
19594;BME280;9944;48.240;16.478;2022-11-25T19:04:14;100248.03;;;5.61;82.95
19594;BME280;9944;48.240;16.478;2022-11-25T19:08:17;100256.78;;;5.61;83.33
19594;BME280;9944;48.240;16.478;2022-11-25T19:12:20;100255.09;;;5.65;83.55
19594;BME280;9944;48.240;16.478;2022-11-25T19:16:26;100255.16;;;5.66;83.43
19594;BME280;9944;48.240;16.478;2022-11-25T19:20:29;100262.13;;;5.66;83.47
19594;BME280;9944;48.240;16.478;2022-11-25T19:24:33;100260.34;;;5.65;83.50
19594;BME280;9944;48.240;16.478;2022-11-25T19:28:36;100263.00;;;5.66;83.43
19594;BME280;9944;48.240;16.478;2022-11-25T19:32:41;100263.81;;;5.64;83.50
19594;BME280;9944;48.240;16.478;2022-11-25T19:36:45;100273.41;;;5.63;83.41
19594;BME280;9944;48.240;16.478;2022-11-25T19:40:48;100276.91;;;5.64;83.21
19594;BME280;9944;48.240;16.478;2022-11-25T19:44:51;100283.84;;;5.62;83.53
19594;BME280;9944;48.240;16.478;2022-11-25T19:48:59;100293.38;;;5.60;83.55
19594;BME280;9944;48.240;16.478;2022-11-25T19:53:03;100287.28;;;5.59;83.50
19594;BME280;9944;48.240;16.478;2022-11-25T19:57:13;100295.09;;;5.58;83.82
19594;BME280;9944;48.240;16.478;2022-11-25T20:01:18;100309.06;;;5.58;83.54
19594;BME280;9944;48.240;16.478;2022-11-25T20:05:28;100316.97;;;5.60;83.50
19594;BME280;9944;48.240;16.478;2022-11-25T20:09:32;100327.34;;;5.57;83.36
19594;BME280;9944;48.240;16.478;2022-11-25T20:13:36;100318.63;;;5.56;83.22
19594;BME280;9944;48.240;16.478;2022-11-25T20:17:42;100329.91;;;5.53;82.95
19594;BME280;9944;48.240;16.478;2022-11-25T20:21:47;100335.16;;;5.53;82.87
19594;BME280;9944;48.240;16.478;2022-11-25T20:25:50;100342.09;;;5.53;83.14
19594;BME280;9944;48.240;16.478;2022-11-25T20:29:53;100348.94;;;5.48;83.05
19594;BME280;9944;48.240;16.478;2022-11-25T20:33:56;100345.38;;;5.44;83.24
19594;BME280;9944;48.240;16.478;2022-11-25T20:38:01;100350.59;;;5.44;83.14
19594;BME280;9944;48.240;16.478;2022-11-25T20:42:04;100354.94;;;5.42;83.53
19594;BME280;9944;48.240;16.478;2022-11-25T20:46:13;100355.75;;;5.41;83.30
19594;BME280;9944;48.240;16.478;2022-11-25T20:50:17;100365.34;;;5.41;83.45
19594;BME280;9944;48.240;16.478;2022-11-25T20:54:22;100364.38;;;5.37;83.52
19594;BME280;9944;48.240;16.478;2022-11-25T20:58:27;100379.19;;;5.35;83.48
19594;BME280;9944;48.240;16.478;2022-11-25T21:02:31;100381.69;;;5.32;83.53
19594;BME280;9944;48.240;16.478;2022-11-25T21:06:34;100381.63;;;5.29;83.30
19594;BME280;9944;48.240;16.478;2022-11-25T21:10:44;100390.31;;;5.28;83.20
19594;BME280;9944;48.240;16.478;2022-11-25T21:14:47;100391.16;;;5.27;83.07
19594;BME280;9944;48.240;16.478;2022-11-25T21:18:51;100389.31;;;5.23;82.74
19594;BME280;9944;48.240;16.478;2022-11-25T21:22:56;100388.31;;;5.18;82.27
19594;BME280;9944;48.240;16.478;2022-11-25T21:27:09;100388.16;;;5.13;82.54
19594;BME280;9944;48.240;16.478;2022-11-25T21:31:17;100387.25;;;5.11;82.64
19594;BME280;9944;48.240;16.478;2022-11-25T21:35:21;100385.34;;;5.05;82.47
19594;BME280;9944;48.240;16.478;2022-11-25T21:39:28;100388.75;;;5.03;82.37
19594;BME280;9944;48.240;16.478;2022-11-25T21:43:37;100392.19;;;5.00;82.35
19594;BME280;9944;48.240;16.478;2022-11-25T21:47:41;100393.88;;;4.98;82.61
19594;BME280;9944;48.240;16.478;2022-11-25T21:51:44;100391.94;;;4.92;82.05
19594;BME280;9944;48.240;16.478;2022-11-25T21:55:48;100383.97;;;4.88;82.39